MMNL/NLD METAR and TAF weather

Enter ICAO airport designator
Station Type Date Time Source
MMNL METAR 2019/12/16 01:41 UTC NOAA

MMNL 160141Z 00000KT 10SM SKC 22/12 A2968


Station Type Date Time Source
MMNL Decoded METAR 2019/12/16 01:41 UTC NOAA

Nuevo Laredo International , Mexico (MMNL) 27-26N 099-34W
Dec 15, 2019 - 08:41 PM EST / 2019.12.16 0141 UTC
Wind: Calm:0
Visibility: 10 mile(s):0
Sky conditions: clear
Temperature: 71 F (22 C)
Dew Point: 53 F (12 C)
Relative Humidity: 53%
Pressure (altimeter): 29.68 in. Hg (1005 hPa)
ob: MMNL 160141Z 00000KT 10SM SKC 22/12 A2968
cycle: 1

Station Type Date Time Source
MMNL TAF 2019/12/16 06:17 UTC NOAA

TAF MMNL 160513Z 1606/1706 00000KT P6SM SKC
FM160900 34006KT 4SM HZ BKN008
TEMPO 1611/1615 1SM BR HZ BKN004
FM161800 36015KT P6SM BKN020 BKN080
FM170500 36010KT P6SM SCT020 BKN250

Example: see airport list